sensor_id;sensor_type;location;lat;lon;timestamp;temperature;humidity
20996;DHT22;10656;52.200;21.052;2023-04-25T00:05:13;12.10;99.90
20996;DHT22;10656;52.200;21.052;2023-04-25T00:17:29;11.60;99.90
20996;DHT22;10656;52.200;21.052;2023-04-25T00:55:41;11.20;99.90
20996;DHT22;10656;52.200;21.052;2023-04-25T01:21:02;11.40;99.90
20996;DHT22;10656;52.200;21.052;2023-04-25T01:51:39;11.40;99.90
20996;DHT22;10656;52.200;21.052;2023-04-25T01:56:03;11.30;99.90
20996;DHT22;10656;52.200;21.052;2023-04-25T02:21:45;11.80;99.90
20996;DHT22;10656;52.200;21.052;2023-04-25T02:47:23;11.30;99.90
20996;DHT22;10656;52.200;21.052;2023-04-25T03:27:48;10.80;99.90
20996;DHT22;10656;52.200;21.052;2023-04-25T03:53:05;11.40;99.90
20996;DHT22;10656;52.200;21.052;2023-04-25T03:56:01;11.50;99.90
20996;DHT22;10656;52.200;21.052;2023-04-25T04:13:31;11.60;99.90
20996;DHT22;10656;52.200;21.052;2023-04-25T04:38:38;12.00;99.90
20996;DHT22;10656;52.200;21.052;2023-04-25T05:03:41;12.10;99.90
20996;DHT22;10656;52.200;21.052;2023-04-25T05:29:24;11.80;99.90
20996;DHT22;10656;52.200;21.052;2023-04-25T05:32:18;11.70;99.90
20996;DHT22;10656;52.200;21.052;2023-04-25T05:59:55;11.30;99.90
20996;DHT22;10656;52.200;21.052;2023-04-25T06:24:52;10.90;99.90
20996;DHT22;10656;52.200;21.052;2023-04-25T06:50:42;10.80;99.90
20996;DHT22;10656;52.200;21.052;2023-04-25T07:15:51;10.90;99.90
20996;DHT22;10656;52.200;21.052;2023-04-25T08:06:45;11.80;99.90
20996;DHT22;10656;52.200;21.052;2023-04-25T08:36:41;12.00;99.90
20996;DHT22;10656;52.200;21.052;2023-04-25T09:07:34;10.80;99.90
20996;DHT22;10656;52.200;21.052;2023-04-25T09:37:54;10.50;99.90
20996;DHT22;10656;52.200;21.052;2023-04-25T09:57:52;10.90;99.90
20996;DHT22;10656;52.200;21.052;2023-04-25T10:28:00;10.50;99.90
20996;DHT22;10656;52.200;21.052;2023-04-25T10:53:59;10.70;99.90
20996;DHT22;10656;52.200;21.052;2023-04-25T11:19:15;10.70;99.90
20996;DHT22;10656;52.200;21.052;2023-04-25T12:28:36;11.50;97.30
20996;DHT22;10656;52.200;21.052;2023-04-25T12:53:46;11.30;94.30
20996;DHT22;10656;52.200;21.052;2023-04-25T13:39:37;11.30;94.80
20996;DHT22;10656;52.200;21.052;2023-04-25T14:04:55;11.00;96.00
20996;DHT22;10656;52.200;21.052;2023-04-25T14:16:44;11.10;97.90
20996;DHT22;10656;52.200;21.052;2023-04-25T15:20:56;10.70;99.90
20996;DHT22;10656;52.200;21.052;2023-04-25T15:25:23;10.70;99.90
20996;DHT22;10656;52.200;21.052;2023-04-25T15:51:28;10.20;99.90
20996;DHT22;10656;52.200;21.052;2023-04-25T17:47:56;8.30;99.90
20996;DHT22;10656;52.200;21.052;2023-04-25T18:18:28;8.10;99.90
20996;DHT22;10656;52.200;21.052;2023-04-25T18:38:32;8.10;99.90
20996;DHT22;10656;52.200;21.052;2023-04-25T19:03:46;8.10;99.90
20996;DHT22;10656;52.200;21.052;2023-04-25T19:24:12;8.10;99.90
20996;DHT22;10656;52.200;21.052;2023-04-25T19:54:40;7.90;99.90
20996;DHT22;10656;52.200;21.052;2023-04-25T20:20:08;7.90;99.90
20996;DHT22;10656;52.200;21.052;2023-04-25T21:15:50;7.90;99.90
20996;DHT22;10656;52.200;21.052;2023-04-25T21:36:08;7.90;99.90
20996;DHT22;10656;52.200;21.052;2023-04-25T21:45:55;7.90;99.90
20996;DHT22;10656;52.200;21.052;2023-04-25T21:56:01;8.00;99.90
20996;DHT22;10656;52.200;21.052;2023-04-25T22:25:54;8.00;99.90
20996;DHT22;10656;52.200;21.052;2023-04-25T22:46:36;7.70;99.90
20996;DHT22;10656;52.200;21.052;2023-04-25T23:11:57;7.50;99.90
20996;DHT22;10656;52.200;21.052;2023-04-25T23:42:25;7.60;99.90
